Time;durP1;ratioP1;P1;durP2;ratioP2;P2;SDS_P1;SDS_P2;PMS_P1;PMS_P2;Temp;Humidity;BMP_temperature;BMP_pressure;BME280_temperature;BME280_humidity;BME280_pressure;Samples;Min_cycle;Max_cycle;Signal;HPM_P1;HPM_P2
2022/09/18 00:01:21;;;;;;;6.23;1.40;;;11.40;99.90;;;;;;5114592;28;20177;-38
2022/09/18 00:03:47;;;;;;;2.60;1.27;;;11.50;99.90;;;;;;5114537;28;20264;-40
2022/09/18 00:06:16;;;;;;;3.20;1.10;;;11.40;99.90;;;;;;5113973;28;20269;-37
2022/09/18 00:08:44;;;;;;;3.97;1.20;;;11.40;99.90;;;;;;5114403;28;20185;-38
2022/09/18 00:11:13;;;;;;;3.80;1.17;;;11.40;99.90;;;;;;5114518;28;20646;-38
2022/09/18 00:13:40;;;;;;;3.30;1.30;;;11.40;99.90;;;;;;5114622;28;20308;-39
2022/09/18 00:16:08;;;;;;;3.27;1.10;;;11.40;99.90;;;;;;5114398;28;20193;-40
2022/09/18 00:18:34;;;;;;;5.00;1.10;;;11.40;99.90;;;;;;5114644;28;20174;-37
2022/09/18 00:21:09;;;;;;;4.90;1.30;;;11.40;99.90;;;;;;5114336;28;20640;-39
2022/09/18 00:23:35;;;;;;;5.00;1.30;;;11.40;99.90;;;;;;5114509;28;20528;-38
2022/09/18 00:26:01;;;;;;;5.50;1.60;;;11.30;99.90;;;;;;5114084;28;20225;-38
2022/09/18 00:28:27;;;;;;;4.47;1.13;;;11.40;99.90;;;;;;5114454;28;20575;-39
2022/09/18 00:30:53;;;;;;;2.43;0.97;;;11.40;99.90;;;;;;5114035;28;20205;-41
2022/09/18 00:33:28;;;;;;;4.33;1.10;;;11.30;99.90;;;;;;5112837;28;20596;-39
2022/09/18 00:35:53;;;;;;;4.63;1.03;;;11.30;99.90;;;;;;5114193;28;20269;-38
2022/09/18 00:38:19;;;;;;;2.80;1.10;;;11.30;99.90;;;;;;5114220;28;20651;-38
2022/09/18 00:40:44;;;;;;;2.37;1.00;;;11.30;99.90;;;;;;5114061;28;20177;-40
2022/09/18 00:43:36;;;;;;;4.33;0.93;;;11.30;99.90;;;;;;5113875;28;20642;-41
2022/09/18 00:46:06;;;;;;;6.27;0.93;;;11.30;99.90;;;;;;5112734;28;20221;-38
2022/09/18 00:49:13;;;;;;;5.73;1.17;;;11.30;99.90;;;;;;5113753;28;20231;-38
2022/09/18 00:51:40;;;;;;;3.00;0.90;;;11.30;99.90;;;;;;5091357;28;20229;-37
2022/09/18 00:54:28;;;;;;;2.97;0.73;;;11.30;99.90;;;;;;5110326;28;20216;-39
2022/09/18 00:56:59;;;;;;;5.40;1.23;;;11.30;99.90;;;;;;5113683;28;20208;-41
2022/09/18 00:59:29;;;;;;;3.27;1.03;;;11.30;99.90;;;;;;5114066;28;20158;-43
2022/09/18 01:01:56;;;;;;;3.43;1.10;;;11.30;99.90;;;;;;5113672;28;20261;-42
2022/09/18 01:04:22;;;;;;;4.23;1.20;;;11.30;99.90;;;;;;5113111;28;20209;-42
2022/09/18 01:06:47;;;;;;;4.07;1.20;;;11.20;99.90;;;;;;5113748;28;20602;-42
2022/09/18 01:09:23;;;;;;;3.60;1.07;;;11.30;99.90;;;;;;5113611;28;20173;-42
2022/09/18 01:11:55;;;;;;;5.13;1.20;;;11.30;99.90;;;;;;5113892;28;20160;-41
2022/09/18 01:14:59;;;;;;;5.33;1.40;;;11.30;99.90;;;;;;5113923;28;20608;-44
2022/09/18 01:17:44;;;;;;;2.40;1.00;;;11.30;99.90;;;;;;5115752;28;20172;-43
2022/09/18 01:20:34;;;;;;;2.37;1.30;;;11.30;99.90;;;;;;5118100;28;20716;-41
2022/09/18 01:23:05;;;;;;;3.13;1.13;;;11.30;99.90;;;;;;5117980;28;20173;-41
2022/09/18 01:26:07;;;;;;;3.80;1.30;;;11.30;99.90;;;;;;5117724;28;20222;-39
2022/09/18 01:28:38;;;;;;;3.13;1.30;;;11.30;99.90;;;;;;5117719;28;20166;-39
2022/09/18 01:31:27;;;;;;;1.37;0.77;;;11.30;99.90;;;;;;5117622;28;20181;-40
2022/09/18 01:34:00;;;;;;;4.87;1.27;;;11.30;99.90;;;;;;5117923;28;20167;-41
2022/09/18 01:36:32;;;;;;;5.20;1.03;;;11.30;99.90;;;;;;5117613;28;20205;-39
2022/09/18 01:39:14;;;;;;;5.23;1.50;;;11.30;99.90;;;;;;5117639;28;20193;-43
2022/09/18 01:41:41;;;;;;;2.17;1.50;;;11.30;99.90;;;;;;5117314;28;20157;-43
2022/09/18 01:44:19;;;;;;;2.47;1.50;;;11.30;99.90;;;;;;5115837;28;20289;-42
2022/09/18 01:46:46;;;;;;;4.80;1.30;;;11.30;99.90;;;;;;5117396;28;20279;-43
2022/09/18 01:49:17;;;;;;;3.33;1.50;;;11.30;99.90;;;;;;5117344;28;20544;-44
2022/09/18 01:51:51;;;;;;;3.27;1.40;;;11.30;99.90;;;;;;5117447;28;20177;-43
2022/09/18 01:54:22;;;;;;;4.63;1.60;;;11.30;99.90;;;;;;5117131;28;20166;-43
2022/09/18 01:57:03;;;;;;;3.57;1.60;;;11.30;99.90;;;;;;5116999;28;20197;-43
2022/09/18 01:59:46;;;;;;;2.43;1.60;;;11.30;99.90;;;;;;5117210;27;20226;-42
2022/09/18 02:02:26;;;;;;;2.47;1.33;;;11.30;99.90;;;;;;5115616;28;20201;-43
2022/09/18 02:04:58;;;;;;;2.90;1.20;;;11.20;99.90;;;;;;5117033;28;20685;-42
2022/09/18 02:07:43;;;;;;;6.23;1.83;;;11.20;99.90;;;;;;5116252;28;20188;-41
2022/09/18 02:10:09;;;;;;;3.37;1.20;;;11.20;99.90;;;;;;5117043;28;20634;-42
2022/09/18 02:12:40;;;;;;;3.80;1.60;;;11.20;99.90;;;;;;5116977;28;20181;-40
2022/09/18 02:15:12;;;;;;;3.57;1.60;;;11.20;99.90;;;;;;5116597;28;20197;-43
2022/09/18 02:17:50;;;;;;;2.40;1.40;;;11.30;99.90;;;;;;5116631;28;20705;-42
2022/09/18 02:20:24;;;;;;;2.30;1.33;;;11.20;99.90;;;;;;5116769;28;20216;-43
2022/09/18 02:22:53;;;;;;;3.83;1.17;;;11.20;99.90;;;;;;5117032;27;20261;-43
2022/09/18 02:25:26;;;;;;;1.93;1.17;;;11.20;99.90;;;;;;5116277;28;20290;-44
2022/09/18 02:27:53;;;;;;;3.80;1.50;;;11.20;99.90;;;;;;5116261;28;20175;-44
2022/09/18 02:30:21;;;;;;;2.90;1.40;;;11.20;99.90;;;;;;5115877;28;20189;-42
2022/09/18 02:32:46;;;;;;;2.67;1.40;;;11.20;99.90;;;;;;5116324;28;20209;-45
2022/09/18 02:35:13;;;;;;;3.23;1.30;;;11.20;99.90;;;;;;5116325;28;20228;-44
2022/09/18 02:37:45;;;;;;;2.23;1.23;;;11.20;99.90;;;;;;5116384;28;20185;-43
2022/09/18 02:40:36;;;;;;;4.97;1.47;;;11.20;99.90;;;;;;5116466;28;20555;-42
2022/09/18 02:43:14;;;;;;;2.27;0.80;;;11.20;99.90;;;;;;5116919;28;20519;-42
2022/09/18 02:45:42;;;;;;;2.47;1.00;;;11.20;99.90;;;;;;5116099;28;20231;-43
2022/09/18 02:48:24;;;;;;;2.30;1.20;;;11.20;99.90;;;;;;5116253;27;20184;-43
2022/09/18 02:51:24;;;;;;;1.77;0.90;;;11.20;99.90;;;;;;5116195;28;20163;-43
2022/09/18 02:54:06;;;;;;;3.13;1.30;;;11.20;99.90;;;;;;5114670;28;20646;-44
2022/09/18 02:56:40;;;;;;;1.77;1.00;;;11.20;99.90;;;;;;5115832;28;20226;-43
2022/09/18 02:59:25;;;;;;;2.23;1.00;;;11.20;99.90;;;;;;5115781;28;20166;-41
2022/09/18 03:01:52;;;;;;;6.23;1.00;;;11.20;99.90;;;;;;5116038;28;20159;-43
2022/09/18 03:04:27;;;;;;;4.47;0.87;;;11.20;99.90;;;;;;5115898;28;20277;-41
2022/09/18 03:06:53;;;;;;;2.83;0.90;;;11.20;99.90;;;;;;5115610;28;20203;-42
2022/09/18 03:09:19;;;;;;;3.27;0.90;;;11.20;99.90;;;;;;5115838;28;20185;-44
2022/09/18 03:11:45;;;;;;;1.83;1.00;;;11.20;99.90;;;;;;5115542;27;20544;-43
2022/09/18 03:14:11;;;;;;;5.73;1.37;;;11.10;99.90;;;;;;5116103;28;20193;-43
2022/09/18 03:16:37;;;;;;;4.60;1.10;;;11.10;99.90;;;;;;5115378;28;20739;-43
2022/09/18 03:19:03;;;;;;;3.60;1.13;;;11.10;99.90;;;;;;5114082;28;20219;-43
2022/09/18 03:21:29;;;;;;;3.67;1.00;;;11.10;99.90;;;;;;5115404;28;20196;-43
2022/09/18 03:23:55;;;;;;;1.13;0.80;;;11.10;99.90;;;;;;5115121;28;20201;-42
2022/09/18 03:26:21;;;;;;;2.27;0.70;;;11.10;99.90;;;;;;5115469;28;20296;-43
2022/09/18 03:28:47;;;;;;;1.80;0.97;;;11.10;99.90;;;;;;5115238;28;20225;-43
2022/09/18 03:31:13;;;;;;;2.20;0.90;;;11.10;99.90;;;;;;5113907;28;20177;-42
2022/09/18 03:33:38;;;;;;;1.87;1.03;;;11.10;99.90;;;;;;5115436;28;20220;-41
2022/09/18 03:36:05;;;;;;;3.53;1.20;;;11.10;99.90;;;;;;5115043;28;20233;-40
2022/09/18 03:38:31;;;;;;;7.03;1.40;;;11.10;99.90;;;;;;5113677;28;20675;-43
2022/09/18 03:40:57;;;;;;;4.83;1.20;;;11.10;99.90;;;;;;5114547;28;20188;-43
2022/09/18 03:43:23;;;;;;;3.33;1.00;;;11.10;99.90;;;;;;5115135;28;20185;-44
2022/09/18 03:45:48;;;;;;;3.77;1.50;;;11.10;99.90;;;;;;5115018;28;20627;-43
2022/09/18 03:48:14;;;;;;;1.43;1.10;;;11.10;99.90;;;;;;5114862;27;20185;-44
2022/09/18 03:50:39;;;;;;;3.10;1.37;;;11.10;99.90;;;;;;5114749;27;20636;-42
2022/09/18 03:53:07;;;;;;;3.87;1.67;;;11.10;99.90;;;;;;5115220;28;20546;-42
2022/09/18 03:55:34;;;;;;;3.27;1.37;;;11.10;99.90;;;;;;5114669;28;20209;-44
2022/09/18 03:58:00;;;;;;;3.90;1.60;;;11.10;99.90;;;;;;5115382;28;20185;-44
2022/09/18 04:00:26;;;;;;;7.13;2.03;;;11.10;99.90;;;;;;5114519;28;20186;-44
2022/09/18 04:02:51;;;;;;;4.53;1.63;;;11.10;99.90;;;;;;5113359;28;20192;-43
2022/09/18 04:05:17;;;;;;;5.40;1.67;;;11.10;99.90;;;;;;5114334;28;20284;-45
2022/09/18 04:07:43;;;;;;;4.70;1.43;;;11.10;99.90;;;;;;5114523;28;20181;-44
2022/09/18 04:10:08;;;;;;;2.50;1.00;;;11.10;99.90;;;;;;5114423;28;20635;-41
2022/09/18 04:12:34;;;;;;;2.40;1.20;;;11.10;99.90;;;;;;5114456;28;20464;-43
2022/09/18 04:15:00;;;;;;;2.17;1.20;;;11.10;99.90;;;;;;5113084;28;20210;-41
2022/09/18 04:17:25;;;;;;;4.33;1.37;;;11.20;99.90;;;;;;5114802;28;20611;-42
2022/09/18 04:19:51;;;;;;;4.60;1.20;;;11.20;99.90;;;;;;5113212;28;20270;-43
2022/09/18 04:22:17;;;;;;;2.43;1.00;;;11.20;99.90;;;;;;5114441;28;20236;-43
2022/09/18 04:24:44;;;;;;;3.50;1.10;;;11.20;99.90;;;;;;5113859;28;20240;-42
2022/09/18 04:27:10;;;;;;;4.30;1.30;;;11.20;99.90;;;;;;5114042;28;20269;-43
2022/09/18 04:29:35;;;;;;;4.63;1.30;;;11.20;99.90;;;;;;5114192;28;20613;-43
2022/09/18 04:32:01;;;;;;;2.70;1.20;;;11.20;99.90;;;;;;5114493;28;20251;-42
2022/09/18 04:34:27;;;;;;;3.50;1.17;;;11.30;99.90;;;;;;5114077;28;20185;-42
2022/09/18 04:36:53;;;;;;;3.07;0.90;;;11.30;99.90;;;;;;5113896;28;20198;-44
2022/09/18 04:39:18;;;;;;;3.80;1.07;;;11.30;99.90;;;;;;5113937;28;20659;-45
2022/09/18 04:41:48;;;;;;;1.90;1.03;;;11.30;99.90;;;;;;5113818;28;20182;-44
2022/09/18 04:44:13;;;;;;;2.43;1.00;;;11.30;99.90;;;;;;5113672;28;20218;-44
2022/09/18 04:46:39;;;;;;;2.60;1.00;;;11.30;99.90;;;;;;5112398;28;20255;-43
2022/09/18 04:49:05;;;;;;;3.77;1.20;;;11.20;99.90;;;;;;5113997;28;20596;-43
2022/09/18 04:51:30;;;;;;;2.40;1.20;;;11.30;99.90;;;;;;5113707;28;20200;-42
2022/09/18 04:53:56;;;;;;;3.33;1.00;;;11.30;99.90;;;;;;5113948;28;20523;-41
2022/09/18 04:56:22;;;;;;;3.90;1.23;;;11.20;99.90;;;;;;5113656;28;20188;-42
2022/09/18 04:58:47;;;;;;;5.70;1.37;;;11.20;99.90;;;;;;5113646;28;20181;-43
2022/09/18 05:01:13;;;;;;;4.27;1.40;;;11.20;99.90;;;;;;5113820;28;20183;-42
2022/09/18 05:03:38;;;;;;;4.30;1.63;;;11.20;99.90;;;;;;5113848;28;20226;-40
2022/09/18 05:06:04;;;;;;;5.07;1.50;;;11.20;99.90;;;;;;5113354;28;20691;-44
2022/09/18 05:08:31;;;;;;;4.20;1.60;;;11.20;99.90;;;;;;5113467;28;20172;-45
2022/09/18 05:10:57;;;;;;;6.23;1.90;;;11.20;99.90;;;;;;5113838;28;20181;-41
2022/09/18 05:13:22;;;;;;;6.03;1.60;;;11.20;99.90;;;;;;5112268;28;20188;-44
2022/09/18 05:15:52;;;;;;;8.00;1.53;;;11.20;99.90;;;;;;5113591;28;20203;-44
2022/09/18 05:18:18;;;;;;;2.20;1.10;;;11.20;99.90;;;;;;5113638;28;20584;-41
2022/09/18 05:20:43;;;;;;;2.80;1.10;;;11.30;99.90;;;;;;5113579;28;20269;-43
2022/09/18 05:23:09;;;;;;;2.53;1.30;;;11.20;99.90;;;;;;5113455;28;20181;-39
2022/09/18 05:25:34;;;;;;;2.37;1.37;;;11.20;99.90;;;;;;5113140;28;20587;-44
2022/09/18 05:28:02;;;;;;;6.00;2.00;;;11.20;99.90;;;;;;5113492;28;20178;-42
2022/09/18 05:30:29;;;;;;;3.73;1.30;;;11.20;99.90;;;;;;5113554;28;20206;-42
2022/09/18 05:33:00;;;;;;;4.10;1.30;;;11.20;99.90;;;;;;5113823;28;20307;-43
2022/09/18 05:35:28;;;;;;;3.60;1.20;;;11.20;99.90;;;;;;5113085;28;20227;-43
2022/09/18 05:37:54;;;;;;;5.03;1.30;;;11.20;99.90;;;;;;5112276;28;20189;-43
2022/09/18 05:40:22;;;;;;;7.47;1.87;;;11.20;99.90;;;;;;5113200;28;20253;-43
2022/09/18 05:42:49;;;;;;;3.03;1.17;;;11.20;99.90;;;;;;5113151;28;20541;-44
2022/09/18 05:45:15;;;;;;;2.87;1.20;;;11.20;99.90;;;;;;5113286;28;20676;-44
2022/09/18 05:47:41;;;;;;;8.93;1.20;;;11.20;99.90;;;;;;5111869;28;20181;-44
2022/09/18 05:50:08;;;;;;;4.30;1.37;;;11.20;99.90;;;;;;5113334;28;20205;-42
2022/09/18 05:52:35;;;;;;;2.30;1.47;;;11.20;99.90;;;;;;5113344;28;20310;-42
2022/09/18 05:55:01;;;;;;;2.20;1.30;;;11.20;99.90;;;;;;5112973;28;20220;-43
2022/09/18 05:57:27;;;;;;;4.13;1.33;;;11.20;99.90;;;;;;5113227;28;20182;-44
2022/09/18 05:59:52;;;;;;;4.17;1.53;;;11.20;99.90;;;;;;5112961;28;20188;-43
2022/09/18 06:02:18;;;;;;;3.00;1.23;;;11.10;99.90;;;;;;5112999;28;20265;-43
2022/09/18 06:04:44;;;;;;;3.53;1.70;;;11.20;99.90;;;;;;5115272;28;20694;-41
2022/09/18 06:07:11;;;;;;;4.87;1.43;;;11.20;99.90;;;;;;5115651;28;20177;-41
2022/09/18 06:09:38;;;;;;;3.13;1.60;;;11.20;99.90;;;;;;5116768;27;20575;-41
2022/09/18 06:12:04;;;;;;;8.03;1.93;;;11.10;99.90;;;;;;5117277;28;20174;-43
2022/09/18 06:14:29;;;;;;;2.40;1.37;;;11.20;99.90;;;;;;5116967;28;20185;-41
2022/09/18 06:16:55;;;;;;;3.27;1.30;;;11.20;99.90;;;;;;5116840;28;20193;-42
2022/09/18 06:19:21;;;;;;;3.67;1.40;;;11.20;99.90;;;;;;5116872;28;20186;-43
2022/09/18 06:21:46;;;;;;;3.73;1.40;;;11.20;99.90;;;;;;5116553;28;20209;-42
2022/09/18 06:24:12;;;;;;;6.20;1.80;;;11.20;99.90;;;;;;5116516;28;20210;-43
2022/09/18 06:26:38;;;;;;;4.70;1.67;;;11.10;99.90;;;;;;5117541;28;20280;-41
2022/09/18 06:29:03;;;;;;;4.03;1.60;;;11.10;99.90;;;;;;5116674;28;20640;-42
2022/09/18 06:31:29;;;;;;;3.43;1.50;;;11.10;99.90;;;;;;5115079;28;20277;-40
2022/09/18 06:33:55;;;;;;;4.27;1.80;;;11.20;99.90;;;;;;5116855;28;20173;-42
2022/09/18 06:36:20;;;;;;;5.50;1.60;;;11.10;99.90;;;;;;5116227;28;20257;-44
2022/09/18 06:38:49;;;;;;;7.17;1.60;;;11.20;99.90;;;;;;5116232;28;20257;-42
2022/09/18 06:41:15;;;;;;;3.57;1.33;;;11.20;99.90;;;;;;5114873;28;20186;-44
2022/09/18 06:43:41;;;;;;;7.70;1.77;;;11.10;99.90;;;;;;5116189;28;20178;-40
2022/09/18 06:46:09;;;;;;;5.13;1.77;;;11.20;99.90;;;;;;5116167;28;20266;-37
2022/09/18 06:48:35;;;;;;;4.67;1.70;;;11.20;99.90;;;;;;5116317;28;20178;-40
2022/09/18 06:51:01;;;;;;;3.13;1.20;;;11.20;99.90;;;;;;5116183;28;20188;-39
2022/09/18 06:53:26;;;;;;;4.87;1.80;;;11.30;99.90;;;;;;5116311;28;20185;-40
2022/09/18 06:55:56;;;;;;;4.07;1.67;;;11.30;99.90;;;;;;5115744;28;20244;-39
2022/09/18 06:58:22;;;;;;;1.67;1.00;;;11.30;99.90;;;;;;5116539;28;20567;-39
2022/09/18 07:00:48;;;;;;;4.77;1.70;;;11.30;99.90;;;;;;5116095;28;20177;-40
2022/09/18 07:03:13;;;;;;;3.27;1.33;;;11.30;99.90;;;;;;5115994;28;20280;-40
2022/09/18 07:05:49;;;;;;;7.00;1.30;;;11.30;99.90;;;;;;5115526;28;20215;-41
2022/09/18 07:08:15;;;;;;;3.17;1.10;;;11.30;99.90;;;;;;5115699;28;20166;-40
2022/09/18 07:10:41;;;;;;;4.77;1.67;;;11.40;99.90;;;;;;5115877;28;20173;-38
2022/09/18 07:13:07;;;;;;;5.17;1.30;;;11.40;99.90;;;;;;5115788;28;20206;-38
2022/09/18 07:15:33;;;;;;;3.37;1.13;;;11.40;99.90;;;;;;5115516;28;20612;-40
2022/09/18 07:18:01;;;;;;;3.70;1.10;;;11.60;99.90;;;;;;5115662;28;20616;-39
2022/09/18 07:20:27;;;;;;;8.13;1.57;;;11.50;99.90;;;;;;5115581;28;20647;-39
2022/09/18 07:22:54;;;;;;;6.13;1.20;;;11.70;99.90;;;;;;5115820;27;20169;-39
2022/09/18 07:25:21;;;;;;;2.47;0.87;;;11.70;99.90;;;;;;5115140;28;20240;-40
2022/09/18 07:27:47;;;;;;;4.60;1.20;;;11.80;99.90;;;;;;5115552;28;20181;-40
2022/09/18 07:30:13;;;;;;;4.00;1.10;;;11.90;99.90;;;;;;5113908;28;20181;-39
2022/09/18 07:32:39;;;;;;;4.37;1.20;;;11.90;99.90;;;;;;5115133;28;20205;-40
2022/09/18 07:35:05;;;;;;;2.80;1.03;;;12.00;99.90;;;;;;5115239;27;20538;-40
2022/09/18 07:37:32;;;;;;;2.40;0.90;;;12.00;99.90;;;;;;5115077;28;20253;-37
2022/09/18 07:39:58;;;;;;;1.43;0.57;;;12.10;99.90;;;;;;5114998;28;20190;-40
2022/09/18 07:42:23;;;;;;;2.47;0.80;;;12.10;99.90;;;;;;5115255;28;20192;-40
2022/09/18 07:44:49;;;;;;;3.30;0.97;;;12.10;99.90;;;;;;5114840;28;20284;-40
2022/09/18 07:47:14;;;;;;;1.87;0.90;;;12.20;99.90;;;;;;5114871;28;20177;-39
2022/09/18 07:49:41;;;;;;;2.43;1.00;;;12.20;99.90;;;;;;5114800;28;20188;-41
2022/09/18 07:52:07;;;;;;;1.00;0.70;;;12.20;99.90;;;;;;5115157;28;20512;-38
2022/09/18 07:54:32;;;;;;;1.80;0.90;;;12.30;99.90;;;;;;5114758;28;20173;-39
2022/09/18 07:56:59;;;;;;;3.77;1.03;;;12.40;99.90;;;;;;5114587;28;20198;-40
2022/09/18 07:59:24;;;;;;;2.10;1.37;;;12.40;99.90;;;;;;5114776;28;20557;-39
2022/09/18 08:01:51;;;;;;;4.80;1.20;;;12.50;99.90;;;;;;5115176;28;20189;-41
2022/09/18 08:04:17;;;;;;;3.90;2.13;;;12.50;99.90;;;;;;5114508;28;20198;-38
2022/09/18 08:06:42;;;;;;;3.00;1.70;;;12.60;99.90;;;;;;5114438;28;20201;-39
2022/09/18 08:09:08;;;;;;;8.60;1.80;;;12.70;99.90;;;;;;5114375;28;20181;-40
2022/09/18 08:11:34;;;;;;;3.47;1.80;;;12.80;99.90;;;;;;5114869;28;20514;-38
2022/09/18 08:13:59;;;;;;;4.70;1.80;;;12.80;99.90;;;;;;5114332;28;20233;-42
2022/09/18 08:16:25;;;;;;;4.87;1.63;;;13.00;99.90;;;;;;5114274;28;20199;-38
2022/09/18 08:18:50;;;;;;;4.90;2.10;;;13.00;99.90;;;;;;5114447;28;20209;-38
2022/09/18 08:21:17;;;;;;;8.37;2.00;;;13.10;99.90;;;;;;5114201;28;20178;-38
2022/09/18 08:23:43;;;;;;;3.03;1.33;;;13.10;99.90;;;;;;5114464;28;20239;-40
2022/09/18 08:26:08;;;;;;;2.83;1.50;;;13.10;99.90;;;;;;5113405;28;20225;-40
2022/09/18 08:28:34;;;;;;;2.43;1.30;;;13.10;99.90;;;;;;5114725;28;20231;-40
2022/09/18 08:30:59;;;;;;;4.07;1.53;;;13.20;99.90;;;;;;5114393;27;20250;-41
2022/09/18 08:33:25;;;;;;;4.33;1.00;;;13.30;99.90;;;;;;5114057;28;20178;-40
2022/09/18 08:35:51;;;;;;;1.73;1.20;;;13.30;99.90;;;;;;5113893;28;20222;-40
2022/09/18 08:38:16;;;;;;;1.80;1.00;;;13.30;99.90;;;;;;5112551;28;20183;-40
2022/09/18 08:40:50;;;;;;;2.03;1.20;;;13.30;99.90;;;;;;5113834;28;20187;-39
2022/09/18 08:43:37;;;;;;;2.17;1.37;;;13.30;99.90;;;;;;5114200;28;20176;-40
2022/09/18 08:46:11;;;;;;;2.73;1.40;;;13.20;99.90;;;;;;5113679;28;20265;-40
2022/09/18 08:48:54;;;;;;;2.97;1.20;;;13.10;99.90;;;;;;5114051;28;20226;-39
2022/09/18 08:51:31;;;;;;;1.90;1.40;;;13.00;99.90;;;;;;5114033;28;20245;-39
2022/09/18 08:54:10;;;;;;;3.30;1.20;;;13.00;99.90;;;;;;5113959;28;20238;-41
2022/09/18 08:56:36;;;;;;;5.53;1.50;;;12.90;99.90;;;;;;5113637;28;20323;-40
2022/09/18 08:59:09;;;;;;;1.53;1.00;;;12.90;99.90;;;;;;5113590;28;20181;-41
2022/09/18 09:01:45;;;;;;;3.07;1.10;;;13.00;99.90;;;;;;5113907;28;20624;-41
2022/09/18 09:04:27;;;;;;;1.20;1.10;;;13.00;99.90;;;;;;5113873;28;20170;-39
2022/09/18 09:07:12;;;;;;;4.33;1.30;;;13.00;99.90;;;;;;5113760;28;20198;-40
2022/09/18 09:09:49;;;;;;;2.63;1.07;;;13.10;99.90;;;;;;5113918;28;20166;-41
2022/09/18 09:12:46;;;;;;;2.70;1.10;;;13.10;99.90;;;;;;5113822;28;20214;-40
2022/09/18 09:15:33;;;;;;;5.00;1.03;;;13.10;99.90;;;;;;5113665;28;20194;-40
2022/09/18 09:18:18;;;;;;;1.70;1.20;;;13.10;99.90;;;;;;5113844;28;20166;-40
2022/09/18 09:20:49;;;;;;;1.97;1.30;;;13.10;99.90;;;;;;5113743;28;20178;-40
2022/09/18 09:23:44;;;;;;;4.10;1.40;;;13.10;99.90;;;;;;5113950;28;20166;-41
2022/09/18 09:26:17;;;;;;;4.17;1.30;;;13.20;99.90;;;;;;5108147;28;20241;-40
2022/09/18 09:28:55;;;;;;;1.80;0.90;;;13.20;99.90;;;;;;5113320;28;20227;-40
2022/09/18 09:31:26;;;;;;;1.60;1.07;;;13.20;99.90;;;;;;5113332;28;20624;-40
2022/09/18 09:33:54;;;;;;;4.83;1.40;;;13.20;99.90;;;;;;5112104;28;20178;-38
2022/09/18 09:36:26;;;;;;;2.40;1.20;;;13.10;99.90;;;;;;5113171;28;20325;-41
2022/09/18 09:39:07;;;;;;;1.93;1.30;;;13.20;99.90;;;;;;5114768;28;20207;-38
2022/09/18 09:41:41;;;;;;;4.27;1.27;;;13.20;99.90;;;;;;5117621;28;20170;-39
2022/09/18 09:44:28;;;;;;;4.80;1.27;;;13.20;99.90;;;;;;5117409;28;20179;-38
2022/09/18 09:47:11;;;;;;;3.03;1.23;;;13.10;99.90;;;;;;5117311;28;20198;-38
2022/09/18 09:49:44;;;;;;;4.77;1.00;;;13.10;99.90;;;;;;5117005;27;20189;-41
2022/09/18 09:52:24;;;;;;;3.13;1.23;;;13.10;99.90;;;;;;5117444;28;20239;-37
2022/09/18 09:55:20;;;;;;;3.83;1.00;;;13.00;99.90;;;;;;5117231;28;20256;-41
2022/09/18 09:58:11;;;;;;;2.47;0.83;;;13.00;99.90;;;;;;5116657;28;20596;-38
2022/09/18 10:00:51;;;;;;;3.53;1.53;;;12.90;99.90;;;;;;5117009;28;20190;-43
2022/09/18 10:03:57;;;;;;;3.00;1.37;;;12.90;99.90;;;;;;5117795;28;20588;-42
2022/09/18 10:06:46;;;;;;;1.73;1.00;;;12.80;99.90;;;;;;5116406;28;20298;-42
2022/09/18 10:09:14;;;;;;;2.17;1.40;;;12.80;99.90;;;;;;5117076;28;20169;-39
2022/09/18 10:11:42;;;;;;;6.43;1.40;;;12.70;99.90;;;;;;5116804;28;20170;-40
2022/09/18 10:14:21;;;;;;;2.27;1.30;;;12.70;99.90;;;;;;5116844;28;20341;-42
2022/09/18 10:16:49;;;;;;;1.97;1.47;;;12.60;99.90;;;;;;5116604;28;20198;-41
2022/09/18 10:19:18;;;;;;;3.57;1.10;;;12.70;99.90;;;;;;5116597;28;20178;-39
2022/09/18 10:21:45;;;;;;;3.07;1.40;;;12.70;99.90;;;;;;5116772;28;20206;-41
2022/09/18 10:24:25;;;;;;;3.37;1.37;;;12.70;99.90;;;;;;5116375;28;20178;-41
2022/09/18 10:26:53;;;;;;;3.27;1.33;;;12.70;99.90;;;;;;5116320;28;20274;-42
2022/09/18 10:29:19;;;;;;;8.00;1.27;;;12.60;99.90;;;;;;5116442;28;20210;-43
2022/09/18 10:31:57;;;;;;;3.87;1.30;;;12.60;99.90;;;;;;5115194;28;20263;-41
2022/09/18 10:34:41;;;;;;;5.33;1.40;;;12.60;99.90;;;;;;5116244;28;20247;-44
2022/09/18 10:37:26;;;;;;;1.10;1.00;;;12.50;99.90;;;;;;5116304;27;20213;-45
2022/09/18 10:39:58;;;;;;;2.53;1.27;;;12.40;99.90;;;;;;5116181;28;20542;-41
2022/09/18 10:42:30;;;;;;;3.03;1.20;;;12.40;99.90;;;;;;5116514;28;20167;-41
2022/09/18 10:45:05;;;;;;;1.93;1.07;;;12.40;99.90;;;;;;5116083;28;20590;-45
2022/09/18 10:47:35;;;;;;;5.50;1.83;;;12.30;99.90;;;;;;5116111;28;20155;-44
2022/09/18 10:50:05;;;;;;;1.23;1.13;;;12.30;99.90;;;;;;5115777;28;20167;-45
2022/09/18 10:52:34;;;;;;;2.60;1.53;;;12.40;99.90;;;;;;5116538;27;20170;-46
2022/09/18 10:55:11;;;;;;;5.30;1.30;;;12.40;99.90;;;;;;5116687;28;20205;-46
2022/09/18 10:57:47;;;;;;;4.63;1.57;;;12.40;99.90;;;;;;5116347;28;20644;-44
2022/09/18 11:00:57;;;;;;;2.03;1.13;;;12.50;99.90;;;;;;5116645;28;20204;-46
2022/09/18 11:03:35;;;;;;;8.93;2.93;;;12.40;99.90;;;;;;5116394;28;20258;-46
2022/09/18 11:06:04;;;;;;;3.20;2.13;;;12.40;99.90;;;;;;5115830;28;20370;-46
2022/09/18 11:08:36;;;;;;;4.27;1.90;;;12.40;99.90;;;;;;5115633;28;20183;-46
2022/09/18 11:11:30;;;;;;;2.90;1.73;;;12.40;99.90;;;;;;5115950;28;20527;-45
2022/09/18 11:14:02;;;;;;;3.03;1.67;;;12.40;99.90;;;;;;5111554;28;20226;-44
2022/09/18 11:16:37;;;;;;;3.53;1.33;;;12.40;99.90;;;;;;5115728;28;20202;-45
2022/09/18 11:19:23;;;;;;;3.53;1.47;;;12.40;99.90;;;;;;5115604;28;20162;-44
2022/09/18 11:21:51;;;;;;;5.83;1.53;;;12.40;99.90;;;;;;5111470;28;20202;-44
2022/09/18 11:24:27;;;;;;;3.00;1.27;;;12.50;99.90;;;;;;5115469;28;20206;-46
2022/09/18 11:26:58;;;;;;;1.37;1.23;;;12.50;99.90;;;;;;5115313;28;20198;-43
2022/09/18 11:29:31;;;;;;;2.83;1.80;;;12.50;99.90;;;;;;5114086;28;20179;-46
2022/09/18 11:32:09;;;;;;;6.37;2.40;;;12.50;99.90;;;;;;5115357;28;20161;-46
2022/09/18 11:34:43;;;;;;;2.20;2.00;;;12.60;99.90;;;;;;5115374;28;20201;-45
2022/09/18 11:37:15;;;;;;;2.77;1.97;;;12.70;99.90;;;;;;5115158;28;20169;-43
2022/09/18 11:39:44;;;;;;;4.13;2.33;;;12.70;99.90;;;;;;5115500;28;20185;-45
2022/09/18 11:42:12;;;;;;;5.77;1.70;;;12.80;99.90;;;;;;5115501;28;20531;-45
2022/09/18 11:44:38;;;;;;;2.13;1.50;;;12.90;99.90;;;;;;5114999;28;20206;-45
2022/09/18 11:47:13;;;;;;;3.93;2.20;;;13.00;99.90;;;;;;5115410;28;20182;-46
2022/09/18 11:49:44;;;;;;;3.33;1.73;;;13.00;99.90;;;;;;5115206;28;20631;-45
2022/09/18 11:52:20;;;;;;;3.67;1.90;;;13.20;99.90;;;;;;5114966;28;20165;-44
2022/09/18 11:55:10;;;;;;;9.53;2.03;;;13.20;99.90;;;;;;5115029;28;20181;-45
2022/09/18 11:57:40;;;;;;;7.10;2.23;;;13.30;99.90;;;;;;5115057;27;20166;-45
2022/09/18 12:00:20;;;;;;;5.23;2.37;;;13.40;99.90;;;;;;5114737;28;20209;-45
2022/09/18 12:02:59;;;;;;;4.27;1.87;;;13.40;99.90;;;;;;5114101;28;20178;-45
2022/09/18 12:05:52;;;;;;;6.83;2.80;;;13.50;99.90;;;;;;5114818;28;20241;-45
2022/09/18 12:08:26;;;;;;;3.87;1.77;;;13.60;99.90;;;;;;5115189;27;20169;-45
2022/09/18 12:11:09;;;;;;;5.20;2.53;;;13.60;99.90;;;;;;5114791;28;20223;-45
2022/09/18 12:14:01;;;;;;;2.60;1.63;;;13.80;99.90;;;;;;5114845;28;20170;-42
2022/09/18 12:16:46;;;;;;;2.93;1.73;;;13.80;99.90;;;;;;5114347;28;20198;-39
2022/09/18 12:19:29;;;;;;;2.73;2.00;;;13.90;99.90;;;;;;5114931;28;20158;-39
2022/09/18 12:22:10;;;;;;;5.43;2.33;;;13.90;99.90;;;;;;5114295;28;20221;-39
2022/09/18 12:24:36;;;;;;;5.47;2.00;;;13.90;99.90;;;;;;5114480;28;20679;-39
2022/09/18 12:58:26;;;;;;;7.97;1.97;;;14.00;99.90;;;;;;5050390;28;20629;-41
2022/09/18 13:00:52;;;;;;;2.77;1.63;;;13.60;99.90;;;;;;5050793;28;20525;-42
2022/09/18 13:03:31;;;;;;;2.07;1.60;;;13.60;99.90;;;;;;5050726;28;20714;-43
2022/09/18 13:06:14;;;;;;;3.00;1.70;;;13.60;99.90;;;;;;5050596;28;20196;-43
2022/09/18 13:08:39;;;;;;;4.30;1.43;;;13.50;99.90;;;;;;5050673;28;20168;-44
2022/09/18 13:11:35;;;;;;;4.90;1.90;;;13.50;99.90;;;;;;5051008;28;20244;-43
2022/09/18 13:14:14;;;;;;;4.73;1.53;;;13.40;99.90;;;;;;5045407;28;20184;-46
2022/09/18 13:16:56;;;;;;;3.90;2.30;;;13.40;99.90;;;;;;5050672;28;20204;-44
2022/09/18 13:19:38;;;;;;;3.47;1.90;;;13.30;99.90;;;;;;5050575;28;20574;-44
2022/09/18 13:22:13;;;;;;;2.40;1.80;;;13.10;99.90;;;;;;5050775;28;20636;-43
2022/09/18 13:24:40;;;;;;;5.10;1.63;;;13.00;99.90;;;;;;5050855;28;20179;-44
2022/09/18 13:27:10;;;;;;;4.07;2.03;;;12.90;99.90;;;;;;5050343;28;20216;-43
2022/09/18 13:29:52;;;;;;;2.53;1.87;;;12.90;99.90;;;;;;5050334;28;20169;-45
2022/09/18 13:32:30;;;;;;;2.30;1.60;;;12.80;99.90;;;;;;5050250;28;20184;-44
2022/09/18 13:35:00;;;;;;;3.93;2.00;;;12.80;99.90;;;;;;5050244;28;20173;-46
2022/09/18 13:37:27;;;;;;;2.23;1.40;;;12.80;99.90;;;;;;5049001;28;20208;-44
2022/09/18 13:40:00;;;;;;;1.27;1.07;;;12.90;99.90;;;;;;5050278;28;20185;-45
2022/09/18 13:42:28;;;;;;;2.10;0.87;;;12.90;99.90;;;;;;5049889;28;20197;-44